.
WxDataArchive / Data Records for 2013-11-23
2013-11-22 November 2013 2013-11-24

Data Records for Saturday, 23 November 2013

Time	Temp	Chill	HIndex	Humid	Dewpt	 Wind 	HiWind	WindDir	Rain 	Barom 
-----	----	-----	------	-----	-----	------	------	-------	-----	----- 
00:00	28.5	28.5	28.5	84	24.3	0	0	---	0.00	30.408 
00:05	28.5	28.5	28.5	84	24.3	0	0	---	0.00	30.408 
00:10	28.5	28.5	28.5	84	24.3	0	0	---	0.00	30.408 
00:15	28.4	28.4	28.4	84	24.2	0	1	338	0.00	30.406 
00:20	28.4	28.4	28.4	84	24.2	0	0	---	0.00	30.406 
00:25	28.2	28.2	28.2	84	24.0	0	0	---	0.00	30.406 
00:30	28.2	28.2	28.2	84	24.0	0	0	---	0.00	30.403 
00:35	28.1	28.1	28.1	84	23.9	0	0	---	0.00	30.403 
00:40	28.1	28.1	28.1	84	23.9	0	0	---	0.00	30.403 
00:45	28.1	28.1	28.1	84	23.9	0	0	---	0.00	30.411 
00:50	28.4	28.4	28.4	84	24.2	0	1	338	0.00	30.411 
00:55	28.4	28.4	28.4	84	24.2	0	1	338	0.00	30.411 
01:00	28.5	28.5	28.5	84	24.3	0	1	338	0.00	30.412 
01:05	28.5	28.5	28.5	84	24.3	0	1	338	0.00	30.412 
01:10	28.5	28.5	28.5	84	24.3	0	1	338	0.00	30.412 
01:15	28.4	28.4	28.4	84	24.2	0	1	338	0.00	30.401 
01:20	28.2	28.2	28.2	84	24.0	0	1	338	0.00	30.401 
01:25	28.2	28.2	28.2	84	24.0	0	1	338	0.00	30.401 
01:30	28.1	28.1	28.1	85	24.2	0	1	338	0.00	30.402 
01:35	28.1	28.1	28.1	85	24.2	0	1	338	0.00	30.402 
01:40	28.1	28.1	28.1	85	24.2	0	1	338	0.00	30.402 
01:45	28.1	28.1	28.1	86	24.5	0	1	338	0.00	30.397 
01:50	28.1	28.1	28.1	86	24.5	0	1	338	0.00	30.397 
01:55	28.1	28.1	28.1	86	24.5	0	1	338	0.00	30.397 
02:00	28.1	28.1	28.1	87	24.7	0	1	338	0.00	30.391 
02:05	27.9	27.9	27.9	87	24.5	0	1	338	0.00	30.391 
02:10	27.9	27.9	27.9	87	24.5	0	1	338	0.00	30.391 
02:15	27.9	27.9	27.9	87	24.5	0	1	338	0.00	30.385 
02:20	27.9	27.9	27.9	87	24.5	0	0	---	0.00	30.385 
02:25	27.9	27.9	27.9	87	24.5	0	1	338	0.00	30.385 
02:30	27.8	27.8	27.8	88	24.7	0	0	---	0.00	30.382 
02:35	27.6	27.6	27.6	88	24.5	0	0	---	0.00	30.382 
02:40	27.6	27.6	27.6	88	24.5	0	0	---	0.00	30.382 
02:45	27.5	27.5	27.5	88	24.4	0	0	---	0.00	30.382 
02:50	27.3	27.3	27.3	88	24.2	0	1	338	0.00	30.382 
02:55	27.3	27.3	27.3	88	24.2	0	0	---	0.00	30.382 
03:00	27.3	27.3	27.3	88	24.2	0	1	338	0.00	30.378 
03:05	27.3	27.3	27.3	88	24.2	0	1	338	0.00	30.378 
03:10	27.3	27.3	27.3	88	24.2	0	0	---	0.00	30.378 
03:15	27.3	27.3	27.3	88	24.2	0	1	338	0.00	30.376 
03:20	27.5	27.5	27.5	88	24.4	0	1	338	0.00	30.376 
03:25	27.5	27.5	27.5	88	24.4	0	1	338	0.00	30.376 
03:30	27.5	27.5	27.5	88	24.4	0	1	338	0.00	30.367 
03:35	27.6	27.6	27.6	88	24.5	0	1	338	0.00	30.367 
03:40	27.6	27.6	27.6	88	24.5	0	2	338	0.00	30.367 
03:45	27.6	27.6	27.6	88	24.5	0	2	338	0.00	30.367 
03:50	27.8	27.8	27.8	88	24.7	0	1	338	0.00	30.367 
03:55	27.8	27.8	27.8	88	24.7	1	2	338	0.00	30.367 
04:00	27.9	27.9	27.9	88	24.8	0	2	270	0.00	30.362 
04:05	27.9	27.9	27.9	87	24.5	0	2	270	0.00	30.362 
04:10	27.8	27.8	27.8	87	24.4	0	2	270	0.00	30.362 
04:15	27.8	27.8	27.8	87	24.4	0	1	270	0.00	30.356 
04:20	27.6	27.6	27.6	87	24.2	0	2	270	0.00	30.356 
04:25	27.6	27.6	27.6	87	24.2	0	2	270	0.00	30.356 
04:30	27.6	27.6	27.6	86	24.0	0	1	270	0.00	30.356 
04:35	27.6	27.6	27.6	86	24.0	0	2	270	0.00	30.356 
04:40	27.5	27.5	27.5	86	23.9	1	2	270	0.00	30.356 
04:45	27.5	27.5	27.5	86	23.9	0	2	270	0.00	30.355 
04:50	27.5	27.5	27.5	86	23.9	0	2	270	0.00	30.355 
04:55	27.3	27.3	27.3	85	23.4	0	3	270	0.00	30.355 
05:00	27.3	27.3	27.3	85	23.4	1	3	270	0.00	30.358 
05:05	27.3	27.3	27.3	85	23.4	0	2	270	0.00	30.358 
05:10	27.2	27.2	27.2	84	23.0	1	2	270	0.00	30.358 
05:15	27.2	27.2	27.2	84	23.0	1	3	270	0.00	30.358 
05:20	27.2	27.2	27.2	84	23.0	1	3	270	0.00	30.358 
05:25	27.0	27.0	27.0	84	22.8	1	3	270	0.00	30.358 
05:30	26.9	26.9	26.9	84	22.7	1	3	270	0.00	30.356 
05:35	26.9	26.9	26.9	83	22.4	1	3	270	0.00	30.356 
05:40	26.7	26.7	26.7	83	22.2	0	2	270	0.00	30.356 
05:45	26.7	26.7	26.7	83	22.2	0	2	270	0.00	30.355 
05:50	26.7	26.7	26.7	83	22.2	1	2	270	0.00	30.355 
05:55	26.6	26.6	26.6	83	22.1	0	2	270	0.00	30.355 
06:00	26.6	26.6	26.6	83	22.1	1	2	270	0.00	30.355 
06:05	26.6	26.6	26.6	82	21.9	0	2	270	0.00	30.355 
06:10	26.6	26.6	26.6	82	21.9	1	2	270	0.00	30.355 
06:15	26.4	26.4	26.4	82	21.7	1	2	270	0.00	30.359 
06:20	26.4	26.4	26.4	82	21.7	0	2	270	0.00	30.359 
06:25	26.3	26.3	26.3	82	21.6	0	1	270	0.00	30.359 
06:30	26.1	26.1	26.1	82	21.4	0	1	270	0.00	30.355 
06:35	26.1	26.1	26.1	82	21.4	0	1	270	0.00	30.355 
06:40	26.0	26.0	26.0	82	21.3	0	1	270	0.00	30.355 
06:45	25.8	25.8	25.8	82	21.1	0	1	270	0.00	30.351 
06:50	25.7	25.7	25.7	82	21.0	0	1	270	0.00	30.351 
06:55	25.7	25.7	25.7	82	21.0	0	1	270	0.00	30.351 
07:00	25.7	25.7	25.7	82	21.0	0	1	270	0.00	30.353 
07:05	25.6	25.6	25.6	82	20.9	0	1	270	0.00	30.353 
07:10	25.6	25.6	25.6	82	20.9	0	1	270	0.00	30.353 
07:15	25.4	25.4	25.4	82	20.7	0	1	270	0.00	30.353 
07:20	25.4	25.4	25.4	82	20.7	0	1	270	0.00	30.353 
07:25	25.4	25.4	25.4	81	20.4	0	2	270	0.00	30.353 
07:30	25.4	25.4	25.4	81	20.4	0	2	270	0.00	30.355 
07:35	25.4	25.4	25.4	81	20.4	0	2	270	0.00	30.355 
07:40	25.4	25.4	25.4	81	20.4	0	2	270	0.00	30.355 
07:45	25.4	25.4	25.4	81	20.4	0	2	270	0.00	30.355 
07:50	25.4	25.4	25.4	81	20.4	0	2	270	0.00	30.355 
07:55	25.4	25.4	25.4	81	20.4	0	2	270	0.00	30.355 
08:00	25.4	25.4	25.4	81	20.4	0	2	270	0.00	30.359 
08:05	25.4	25.4	25.4	81	20.4	0	2	270	0.00	30.359 
08:10	25.6	25.6	25.6	81	20.6	1	2	270	0.00	30.359 
08:15	25.7	25.7	25.7	81	20.7	1	2	270	0.00	30.362 
08:20	25.8	25.8	25.8	80	20.5	1	2	270	0.00	30.362 
08:25	26.0	26.0	26.0	80	20.7	1	4	270	0.00	30.362 
08:30	26.0	26.0	26.0	80	20.7	1	3	270	0.00	30.368 
08:35	26.1	26.1	26.1	80	20.8	1	4	270	0.00	30.368 
08:40	26.3	26.3	26.3	79	20.7	1	4	270	0.00	30.368 
08:45	26.4	26.4	26.4	79	20.8	1	3	270	0.00	30.363 
08:50	26.4	26.4	26.4	79	20.8	1	3	292	0.00	30.363 
08:55	26.6	26.6	26.6	79	21.0	0	2	292	0.00	30.363 
09:00	26.9	26.9	26.9	79	21.3	0	2	292	0.00	30.370 
09:05	27.0	27.0	27.0	79	21.4	1	3	292	0.00	30.370 
09:10	27.3	27.3	27.3	79	21.7	1	3	292	0.00	30.370 
09:15	27.6	27.6	27.6	78	21.7	2	3	292	0.00	30.372 
09:20	27.8	27.8	27.8	78	21.8	1	3	292	0.00	30.372 
09:25	28.1	28.1	28.1	77	21.8	1	3	292	0.00	30.372 
09:30	28.4	28.4	28.4	77	22.1	1	3	292	0.00	30.375 
09:35	28.7	28.7	28.7	77	22.4	1	4	315	0.00	30.375 
09:40	29.0	29.0	29.0	76	22.4	1	3	270	0.00	30.375 
09:45	29.1	29.1	29.1	76	22.5	1	5	270	0.00	30.373 
09:50	29.4	29.4	29.4	75	22.5	2	5	248	0.00	30.373 
09:55	29.7	29.7	29.7	75	22.8	2	5	270	0.00	30.373 
10:00	29.8	29.8	29.8	74	22.5	2	5	270	0.00	30.374 
10:05	30.1	30.1	30.1	73	22.5	2	5	292	0.00	30.374 
10:10	30.4	30.4	30.4	73	22.8	2	6	270	0.00	30.374 
10:15	30.6	30.6	30.6	72	22.7	2	5	270	0.00	30.377 
10:20	30.7	30.7	30.7	71	22.4	3	5	270	0.00	30.377 
10:25	30.9	30.9	30.9	71	22.6	2	6	292	0.00	30.377 
10:30	31.0	31.0	31.0	71	22.7	2	6	270	0.00	30.376 
10:35	31.5	31.5	31.5	71	23.2	2	7	292	0.00	30.376 
10:40	31.5	31.5	31.5	69	22.5	3	6	270	0.00	30.376 
10:45	31.3	27.3	31.3	69	22.3	4	7	270	0.00	30.376 
10:50	31.2	27.2	31.2	69	22.2	4	10	315	0.00	30.376 
10:55	31.3	27.3	31.3	69	22.3	4	10	338	0.00	30.376 
11:00	31.3	31.3	31.3	68	22.0	3	12	270	0.00	30.377 
11:05	31.5	27.5	31.5	66	21.5	4	11	315	0.00	30.377 
11:10	31.2	27.2	31.2	65	20.8	4	10	292	0.00	30.377 
11:15	30.9	30.9	30.9	67	21.3	3	10	292	0.00	30.380 
11:20	30.7	30.7	30.7	71	22.4	3	8	292	0.00	30.380 
11:25	30.9	26.8	30.9	70	22.3	4	7	315	0.00	30.380 
11:30	31.0	26.9	31.0	69	22.0	4	8	315	0.00	30.378 
11:35	31.8	31.8	31.8	69	22.8	3	7	0	0.00	30.378 
11:40	31.3	31.3	31.3	67	21.6	3	9	0	0.00	30.378 
11:45	30.7	30.7	30.7	62	19.2	3	9	270	0.00	30.381 
11:50	30.4	26.2	30.4	58	17.4	4	15	315	0.00	30.381 
11:55	30.6	26.5	30.6	56	16.8	4	9	315	0.00	30.381 
12:00	30.6	30.6	30.6	56	16.8	3	11	315	0.00	30.378 
12:05	31.0	31.0	31.0	56	17.2	2	7	315	0.00	30.378 
12:10	31.3	27.3	31.3	54	16.6	4	10	270	0.00	30.378 
12:15	31.2	31.2	31.2	54	16.5	3	5	292	0.00	30.375 
12:20	30.9	26.8	30.9	50	14.5	4	11	338	0.00	30.375 
12:25	30.4	26.2	30.4	51	14.5	4	12	292	0.00	30.375 
12:30	30.0	25.8	30.0	52	14.5	4	10	292	0.00	30.377 
12:35	30.7	30.7	30.7	54	16.0	3	9	292	0.00	30.377 
12:40	31.5	26.5	31.5	50	15.0	5	11	292	0.00	30.377 
12:45	31.6	27.6	31.6	54	16.9	4	9	315	0.00	30.379 
12:50	30.3	26.1	30.3	63	19.2	4	12	315	0.00	30.379 
12:55	29.4	29.4	29.4	68	20.2	3	7	338	0.00	30.379 
13:00	29.0	29.0	29.0	70	20.5	3	9	338	0.00	30.386 
13:05	28.5	28.5	28.5	72	20.6	3	10	315	0.00	30.386 
13:10	27.8	27.8	27.8	77	21.5	3	10	0	0.00	30.386 
13:15	27.5	27.5	27.5	80	22.2	3	7	315	0.00	30.391 
13:20	27.3	27.3	27.3	80	22.0	3	5	338	0.00	30.391 
13:25	27.3	27.3	27.3	80	22.0	2	6	338	0.00	30.391 
13:30	27.3	27.3	27.3	80	22.0	3	9	338	0.00	30.396 
13:35	27.6	27.6	27.6	78	21.7	3	7	338	0.00	30.396 
13:40	27.6	27.6	27.6	76	21.0	3	6	338	0.00	30.396 
13:45	27.8	27.8	27.8	73	20.3	3	10	338	0.00	30.401 
13:50	27.6	23.0	27.6	68	18.4	4	9	338	0.00	30.401 
13:55	27.5	21.8	27.5	66	17.7	5	11	292	0.00	30.401 
14:00	27.5	27.5	27.5	67	18.0	3	11	292	0.00	30.408 
14:05	27.5	27.5	27.5	66	17.7	3	6	338	0.00	30.408 
14:10	27.5	21.8	27.5	62	16.2	5	11	292	0.00	30.408 
14:15	27.5	21.8	27.5	65	17.3	5	12	292	0.00	30.416 
14:20	26.9	22.2	26.9	67	17.4	4	9	292	0.00	30.416 
14:25	26.9	26.9	26.9	69	18.1	2	6	338	0.00	30.416 
14:30	26.9	26.9	26.9	68	17.8	3	6	338	0.00	30.412 
14:35	26.7	26.7	26.7	68	17.6	2	7	315	0.00	30.412 
14:40	26.9	26.9	26.9	68	17.8	3	10	292	0.00	30.412 
14:45	27.0	22.3	27.0	65	16.8	4	9	338	0.00	30.413 
14:50	27.3	27.3	27.3	65	17.1	3	9	315	0.00	30.413 
14:55	27.0	21.2	27.0	59	14.6	5	12	315	0.00	30.413 
15:00	27.0	21.2	27.0	58	14.2	5	12	292	0.00	30.415 
15:05	27.3	22.6	27.3	57	14.1	4	12	315	0.00	30.415 
15:10	27.8	23.2	27.8	56	14.2	4	12	270	0.00	30.415 
15:15	27.3	22.6	27.3	67	17.8	4	10	0	0.00	30.432 
15:20	25.3	20.3	25.3	75	18.5	4	10	315	0.00	30.432 
15:25	24.5	19.4	24.5	77	18.3	4	7	292	0.00	30.432 
15:30	24.7	24.7	24.7	76	18.2	3	9	338	0.00	30.438 
15:35	24.8	24.8	24.8	75	18.0	3	7	292	0.00	30.438 
15:40	25.1	25.1	25.1	74	18.0	2	5	292	0.00	30.438 
15:45	25.3	25.3	25.3	73	17.9	2	6	315	0.00	30.443 
15:50	25.3	25.3	25.3	69	16.6	2	11	315	0.00	30.443 
15:55	25.3	20.3	25.3	63	14.5	4	11	315	0.00	30.443 
16:00	25.4	25.4	25.4	62	14.2	3	7	292	0.00	30.448 
16:05	25.7	20.8	25.7	60	13.8	4	9	292	0.00	30.448 
16:10	25.6	25.6	25.6	58	12.9	3	9	0	0.00	30.448 
16:15	25.4	25.4	25.4	57	12.3	3	7	292	0.00	30.456 
16:20	25.6	20.7	25.6	56	12.1	4	12	292	0.00	30.456 
16:25	25.4	20.5	25.4	56	11.9	4	13	315	0.00	30.456 
16:30	25.4	20.5	25.4	57	12.3	4	9	292	0.00	30.461 
16:35	25.3	25.3	25.3	57	12.2	3	7	315	0.00	30.461 
16:40	25.1	25.1	25.1	58	12.4	3	6	292	0.00	30.461 
16:45	25.0	25.0	25.0	57	11.9	3	9	292	0.00	30.472 
16:50	24.8	24.8	24.8	57	11.8	3	7	292	0.00	30.472 
16:55	24.7	19.6	24.7	56	11.3	4	11	292	0.00	30.472 
17:00	24.5	24.5	24.5	56	11.1	3	10	315	0.00	30.479 
17:05	24.4	19.3	24.4	56	11.0	4	9	292	0.00	30.479 
17:10	24.1	19.0	24.1	55	10.3	4	9	315	0.00	30.479 
17:15	23.9	18.7	23.9	56	10.5	4	13	292	0.00	30.493 
17:20	23.8	18.6	23.8	56	10.4	4	10	292	0.00	30.493 
17:25	23.6	17.2	23.6	57	10.6	5	12	292	0.00	30.493 
17:30	23.6	17.2	23.6	56	10.2	5	13	292	0.00	30.495 
17:35	23.5	23.5	23.5	56	10.1	3	6	292	0.00	30.495 
17:40	23.5	18.3	23.5	55	9.7	4	10	292	0.00	30.495 
17:45	23.5	16.1	23.5	52	8.5	6	14	315	0.00	30.504 
17:50	23.5	18.3	23.5	53	8.9	4	10	338	0.00	30.504 
17:55	23.3	18.0	23.3	53	8.7	4	10	338	0.00	30.504 
18:00	23.2	17.9	23.2	53	8.6	4	7	338	0.00	30.509 
18:05	23.0	17.7	23.0	54	8.9	4	9	292	0.00	30.509 
18:10	22.9	22.9	22.9	55	9.2	3	9	338	0.00	30.509 
18:15	22.7	17.3	22.7	56	9.4	4	11	315	0.00	30.515 
18:20	22.5	22.5	22.5	56	9.2	3	8	315	0.00	30.515 
18:25	22.4	22.4	22.4	57	9.5	2	8	315	0.00	30.515 
18:30	22.4	17.0	22.4	57	9.5	4	11	270	0.00	30.527 
18:35	22.2	22.2	22.2	57	9.3	2	6	315	0.00	30.527 
18:40	22.1	22.1	22.1	57	9.2	3	10	315	0.00	30.527 
18:45	22.1	22.1	22.1	57	9.2	3	7	315	0.00	30.532 
18:50	21.9	21.9	21.9	58	9.4	2	5	0	0.00	30.532 
18:55	21.8	21.8	21.8	58	9.3	2	6	338	0.00	30.532 
19:00	21.6	21.6	21.6	59	9.5	3	9	292	0.00	30.540 
19:05	21.4	21.4	21.4	60	9.7	2	10	292	0.00	30.540 
19:10	21.3	21.3	21.3	61	10.0	3	9	315	0.00	30.540 
19:15	21.1	21.1	21.1	62	10.1	1	4	338	0.00	30.547 
19:20	21.1	21.1	21.1	63	10.5	2	6	292	0.00	30.547 
19:25	21.0	21.0	21.0	63	10.4	1	6	292	0.00	30.547 
19:30	20.8	20.8	20.8	63	10.2	2	7	315	0.00	30.547 
19:35	20.6	20.6	20.6	64	10.4	2	6	248	0.00	30.547 
19:40	20.6	20.6	20.6	65	10.7	2	7	292	0.00	30.547 
19:45	20.5	20.5	20.5	65	10.6	2	7	292	0.00	30.552 
19:50	20.3	20.3	20.3	65	10.4	2	6	270	0.00	30.552 
19:55	20.3	20.3	20.3	66	10.8	1	3	292	0.00	30.552 
20:00	20.2	20.2	20.2	67	11.0	1	4	270	0.00	30.561 
20:05	20.0	20.0	20.0	67	10.8	2	5	270	0.00	30.561 
20:10	20.0	20.0	20.0	67	10.8	1	4	338	0.00	30.561 
20:15	19.9	19.9	19.9	67	10.7	2	5	270	0.00	30.565 
20:20	19.9	19.9	19.9	67	10.7	1	4	0	0.00	30.565 
20:25	19.7	19.7	19.7	67	10.5	1	2	338	0.00	30.565 
20:30	19.7	19.7	19.7	66	10.2	1	4	338	0.00	30.568 
20:35	19.7	19.7	19.7	65	9.9	1	4	338	0.00	30.568 
20:40	19.5	19.5	19.5	64	9.3	1	3	292	0.00	30.568 
20:45	19.5	19.5	19.5	61	8.3	2	9	292	0.00	30.576 
20:50	19.5	19.5	19.5	60	7.9	1	4	270	0.00	30.576 
20:55	19.5	19.5	19.5	60	7.9	1	5	270	0.00	30.576 
21:00	19.4	19.4	19.4	60	7.8	0	2	270	0.00	30.578 
21:05	19.2	19.2	19.2	60	7.6	1	3	315	0.00	30.578 
21:10	19.2	19.2	19.2	60	7.6	0	3	315	0.00	30.578 
21:15	19.1	19.1	19.1	59	7.2	1	4	315	0.00	30.578 
21:20	19.1	19.1	19.1	58	6.8	0	4	270	0.00	30.578 
21:25	18.9	18.9	18.9	58	6.6	0	3	270	0.00	30.578 
21:30	18.9	18.9	18.9	58	6.6	0	2	270	0.00	30.583 
21:35	18.8	18.8	18.8	58	6.5	0	2	292	0.00	30.583 
21:40	18.8	18.8	18.8	57	6.1	1	3	315	0.00	30.583 
21:45	18.8	18.8	18.8	56	5.7	0	3	315	0.00	30.581 
21:50	18.8	18.8	18.8	55	5.3	1	4	292	0.00	30.581 
21:55	18.8	18.8	18.8	55	5.3	1	3	292	0.00	30.581 
22:00	18.8	18.8	18.8	54	4.9	0	3	338	0.00	30.591 
22:05	18.8	18.8	18.8	54	4.9	0	3	338	0.00	30.591 
22:10	18.6	18.6	18.6	54	4.8	0	1	338	0.00	30.591 
22:15	18.4	18.4	18.4	55	5.0	0	2	338	0.00	30.589 
22:20	18.4	18.4	18.4	55	5.0	0	3	315	0.00	30.589 
22:25	18.4	18.4	18.4	54	4.6	0	3	315	0.00	30.589 
22:30	18.3	18.3	18.3	54	4.5	0	2	315	0.00	30.590 
22:35	18.3	18.3	18.3	54	4.5	0	1	315	0.00	30.590 
22:40	18.1	18.1	18.1	55	4.7	0	1	315	0.00	30.590 
22:45	18.0	18.0	18.0	56	5.0	0	0	---	0.00	30.591 
22:50	17.8	17.8	17.8	56	4.8	0	0	---	0.00	30.591 
22:55	17.7	17.7	17.7	58	5.5	0	1	315	0.00	30.591 
23:00	17.5	17.5	17.5	58	5.3	0	1	315	0.00	30.592 
23:05	17.5	17.5	17.5	59	5.6	0	1	315	0.00	30.592 
23:10	17.3	17.3	17.3	60	5.8	0	0	---	0.00	30.592 
23:15	17.3	17.3	17.3	61	6.2	0	0	---	0.00	30.595 
23:20	17.2	17.2	17.2	62	6.4	0	0	---	0.00	30.595 
23:25	17.2	17.2	17.2	63	6.8	0	1	315	0.00	30.595 
23:30	17.0	17.0	17.0	64	7.0	0	0	---	0.00	30.599 
23:35	16.9	16.9	16.9	65	7.2	0	0	---	0.00	30.599 
23:40	16.7	16.7	16.7	66	7.3	0	1	315	0.00	30.599 
23:45	16.7	16.7	16.7	67	7.7	0	0	---	0.00	30.598 
23:50	16.5	16.5	16.5	68	7.8	0	0	---	0.00	30.598 
23:55	16.5	16.5	16.5	68	7.8	0	0	---	0.00	30.598 

CoCoRaHS
IN-AL-39
A2 Web Hosting
Creative Commons License
GoDaddy
search engine by freefind advanced

loaded 2018-11-13 21:13:00 • last modified 2010-11-18 10:43:29
Privacy PolicyDisclaimer
• wx.awcolley.com is powered by PmWiki v.2002016 •
• all content (unless otherwise noted) © 2018 A W Colley